Meriden, Minnesota
Current Conditions -  °F | °C
As of 12:15 AM on Sunday 21 Dec 2014 (Local Time) from KACQ Reporting Station
Haze Haze  
Wind Chill: 24°   Ceiling: 800
Heat Index: 32°   Visibility: 4mi
Dew Point: 30°   Wind: 9mph
Humidity: 93%   Direction: 160°SSE
Pressure: 30.06"   Gusts: NA
Location:  44.0806°N, 93.5062°W
Report Text: KACQ 210615Z AUTO 16008KT 4SM BR OVC008 00/M01 A3006 RMK AO2
Loading
Personal Weather Stations






























Interactive Weather Map New forecast layout! Learn more

10-Day Weather Forecast

Advertisements
Track Severe Weather on mobile